Time;durP1;ratioP1;P1;durP2;ratioP2;P2;SDS_P1;SDS_P2;PMS_P1;PMS_P2;Temp;Humidity;BMP_temperature;BMP_pressure;BME280_temperature;BME280_humidity;BME280_pressure;Samples;Min_cycle;Max_cycle;Signal;HPM_P1;HPM_P2
2022/05/26 00:00:03;;;;;;;1.60;0.90;;;;;;;14.17;81.52;97885.47;5179399;27;20052;-81
2022/05/26 00:02:55;;;;;;;4.18;0.70;;;;;;;14.23;79.99;97895.84;5155257;27;20099;-80
2022/05/26 00:05:27;;;;;;;1.95;0.80;;;;;;;14.15;81.19;97887.75;5179782;27;20137;-80
2022/05/26 00:07:54;;;;;;;1.98;1.08;;;;;;;14.07;82.65;97886.69;5160116;27;20097;-79
2022/05/26 00:10:22;;;;;;;2.10;0.80;;;;;;;13.97;82.88;97878.09;5178070;27;20061;-79
2022/05/26 00:12:51;;;;;;;4.40;0.73;;;;;;;13.89;85.49;97890.63;5178234;27;20062;-80
2022/05/26 00:15:17;;;;;;;4.57;1.10;;;;;;;13.82;86.57;97881.41;5176866;27;20050;-79
2022/05/26 00:17:44;;;;;;;8.13;0.88;;;;;;;-141.50;86.58;97880.78;5177371;27;20049;-80
2022/05/26 00:20:11;;;;;;;4.75;0.93;;;;;;;13.79;86.35;97876.63;5182243;27;20389;-78
2022/05/26 00:26:31;;;;;;;3.20;0.80;;;;;;;13.95;85.31;97880.38;5180451;27;20066;-80
2022/05/26 00:29:02;;;;;;;2.95;0.77;;;;;;;13.95;85.34;97875.72;5178249;27;20057;-80
2022/05/26 00:31:28;;;;;;;2.67;0.90;;;;;;;14.03;83.30;97874.88;5177678;27;20504;-79
2022/05/26 00:52:54;;;;;;;3.78;0.80;;;;;;;14.39;78.84;97882.47;5184040;27;20107;-82
2022/05/26 00:55:27;;;;;;;0.80;0.50;;;;;;;14.47;78.99;97883.53;5182448;27;20065;-80
2022/05/26 00:58:07;;;;;;;2.35;0.85;;;;;;;14.45;77.72;97889.31;5182825;27;20053;-80
2022/05/26 01:00:36;;;;;;;2.33;0.70;;;;;;;14.48;76.68;97872.28;5180816;27;20078;-81
2022/05/26 01:03:16;;;;;;;4.60;0.80;;;;;;;14.48;77.71;97885.91;5195798;27;20065;-80
2022/05/26 01:05:45;;;;;;;2.47;0.73;;;;;;;14.58;74.92;97885.50;5201356;27;20467;-80
2022/05/26 01:08:22;;;;;;;1.92;0.70;;;;;;;14.59;74.56;97889.00;5185003;27;20045;-80
2022/05/26 01:10:49;;;;;;;4.35;0.90;;;;;;;14.50;76.05;97880.94;5205705;27;20042;-80
2022/05/26 01:13:18;;;;;;;6.10;0.82;;;;;;;14.55;74.17;97885.38;5204655;27;20042;-80
2022/05/26 01:15:55;;;;;;;4.07;0.90;;;;;;;14.54;74.24;97878.31;5183022;27;20458;-80
2022/05/26 01:19:01;;;;;;;7.43;0.90;;;;;;;14.57;73.27;97878.47;5209244;27;20051;-80
2022/05/26 01:21:44;;;;;;;2.58;1.17;;;;;;;14.61;72.96;97876.66;5171476;27;20052;-80
2022/05/26 01:24:38;;;;;;;5.90;0.80;;;;;;;14.65;72.87;97887.69;5217264;27;20074;-80
2022/05/26 01:27:14;;;;;;;5.72;1.00;;;;;;;14.66;72.81;97898.25;5215067;27;20105;-80
2022/05/26 01:30:00;;;;;;;1.80;0.80;;;;;;;14.67;72.10;97890.88;5217561;27;20476;-80
2022/05/26 01:32:32;;;;;;;5.30;0.77;;;;;;;14.64;73.36;97888.81;5215806;27;20038;-81
2022/05/26 01:35:21;;;;;;;5.50;0.95;;;;;;;14.63;72.79;97881.78;5218762;27;20048;-81
2022/05/26 01:38:07;;;;;;;3.67;0.80;;;;;;;14.63;73.88;97889.97;5200664;27;20033;-81
2022/05/26 01:40:52;;;;;;;2.15;0.70;;;;;;;14.52;74.44;97877.88;5219822;27;20063;-81
2022/05/26 01:43:21;;;;;;;2.75;0.75;;;;;;;14.48;74.90;97877.72;5212950;27;20042;-83
2022/05/26 01:45:54;;;;;;;4.00;0.80;;;;;;;14.50;74.66;97878.22;5216021;27;20033;-82
2022/05/26 01:48:29;;;;;;;1.90;0.70;;;;;;;14.53;74.06;97882.97;5200347;27;20125;-80
2022/05/26 01:51:02;;;;;;;2.60;0.88;;;;;;;14.40;76.17;97877.81;5198335;27;20069;-79
2022/05/26 01:53:35;;;;;;;1.40;0.60;;;;;;;14.38;76.97;97878.13;5195357;27;20046;-79
2022/05/26 01:56:18;;;;;;;4.40;0.63;;;;;;;14.43;75.26;97877.94;5195652;27;20121;-79
2022/05/26 01:59:03;;;;;;;6.75;0.90;;;;;;;14.39;76.00;97871.56;5197566;27;20041;-79
2022/05/26 02:01:35;;;;;;;1.48;0.60;;;;;;;14.44;75.17;97876.00;5198622;27;20065;-80
2022/05/26 02:04:11;;;;;;;2.30;0.63;;;;;;;14.44;75.65;97881.47;5202139;27;20054;-80
2022/05/26 02:06:40;;;;;;;;;;;;;;;14.52;74.02;97886.03;5183646;27;20077;-80
2022/05/26 02:09:15;;;;;;;4.18;0.80;;;;;;;14.51;74.52;97877.06;5186303;27;19914;-80
2022/05/26 02:11:58;;;;;;;1.52;0.70;;;;;;;14.54;74.16;97876.41;5202682;27;20073;-79
2022/05/26 02:14:38;;;;;;;2.58;0.80;;;;;;;14.55;74.02;97882.66;5180750;27;20049;-79
2022/05/26 02:17:13;;;;;;;2.28;0.70;;;;;;;14.51;74.52;97873.53;5201186;27;20086;-80
2022/05/26 02:19:45;;;;;;;3.33;0.90;;;;;;;14.46;75.51;97884.63;5202869;27;20053;-79
2022/05/26 02:22:50;;;;;;;4.30;0.80;;;;;;;14.43;76.99;97899.72;5201980;27;20038;-79
2022/05/26 02:25:20;;;;;;;3.72;0.70;;;;;;;14.38;77.76;97878.13;5150417;27;20042;-79
2022/05/26 02:27:50;;;;;;;4.32;0.63;;;;;;;14.36;78.22;97894.03;5203357;27;20046;-79
2022/05/26 02:30:21;;;;;;;1.95;0.68;;;;;;;14.28;79.71;97882.03;5203100;27;20125;-80
2022/05/26 02:32:50;;;;;;;7.18;0.90;;;;;;;14.29;79.49;97882.84;5202423;27;20050;-80
2022/05/26 02:35:21;;;;;;;3.25;0.90;;;;;;;14.26;81.11;97880.78;5201241;27;20090;-79
2022/05/26 02:37:54;;;;;;;4.18;0.80;;;;;;;14.19;81.24;97878.59;5183059;27;20054;-79
2022/05/26 02:40:20;;;;;;;3.63;0.82;;;;;;;14.12;82.37;97870.16;5203086;27;20080;-79
2022/05/26 02:43:10;;;;;;;5.65;0.80;;;;;;;14.11;82.02;97871.28;5204311;27;20219;-80
2022/05/26 03:01:19;;;;;;;3.13;0.70;;;;;;;13.80;90.96;97876.31;5103429;28;20069;-78
2022/05/26 03:08:19;;;;;;;3.40;0.80;;;;;;;13.60;91.58;97858.03;5018660;28;20077;-80
2022/05/26 03:10:49;;;;;;;4.00;1.05;;;;;;;13.51;91.02;97836.31;5006544;28;20408;-80
2022/05/26 03:14:19;;;;;;;3.22;0.80;;;;;;;13.46;93.92;97841.13;5043393;28;20040;-79
2022/05/26 03:17:47;;;;;;;2.90;0.65;;;;;;;13.57;93.18;97854.03;5026946;28;20040;-79
2022/05/26 03:21:48;;;;;;;4.38;0.85;;;;;;;13.46;92.89;97839.22;5065074;28;20073;-79
2022/05/26 03:24:57;;;;;;;2.47;0.60;;;;;;;13.50;95.18;97848.28;5010643;28;20387;-80
2022/05/26 03:28:25;;;;;;;2.45;0.70;;;;;;;13.67;94.16;97875.41;4966122;28;20054;-80
2022/05/26 03:31:21;;;;;;;3.42;0.80;;;;;;;13.50;95.47;97840.13;5022059;28;20052;-80
2022/05/26 03:42:54;;;;;;;3.53;0.70;;;;;;;13.71;93.61;97853.78;5074970;28;20517;-78
2022/05/26 03:45:34;;;;;;;2.00;0.63;;;;;;;13.71;94.53;97862.75;5141627;27;20087;-81
2022/05/26 03:48:15;;;;;;;3.78;0.70;;;;;;;13.71;92.74;97838.25;5170401;27;20046;-80
2022/05/26 03:54:33;;;;;;;3.75;0.60;;;;;;;13.88;92.14;97870.00;5158767;27;20066;-79
2022/05/26 04:00:35;;;;;;;2.85;0.88;;;;;;;14.18;89.66;97900.69;5159277;27;20408;-81
2022/05/26 04:03:07;;;;;;;6.85;0.80;;;;;;;13.99;88.35;97864.97;5156481;27;20046;-80
2022/05/26 04:06:18;;;;;;;2.22;0.60;;;;;;;14.16;87.38;97875.72;5138334;27;20630;-80
2022/05/26 04:09:36;;;;;;;2.75;0.80;;;;;;;14.13;89.05;97871.75;5156543;27;20042;-82
2022/05/26 04:12:54;;;;;;;;;;;;;;;;;;;;;
2022/05/26 04:19:44;;;;;;;2.35;0.80;;;;;;;14.28;90.94;97894.84;5032476;28;20063;-81
2022/05/26 04:29:56;;;;;;;3.15;0.85;;;;;;;14.28;95.31;97898.38;5118192;27;20043;-80
2022/05/26 04:32:47;;;;;;;5.65;0.98;;;;;;;14.29;94.00;97907.34;5135813;27;20044;-81
2022/05/26 04:35:27;;;;;;;3.15;0.63;;;;;;;14.24;93.37;97905.63;5135273;27;20083;-81
2022/05/26 04:38:04;;;;;;;6.75;0.80;;;;;;;14.23;96.66;97914.13;5134863;27;20057;-79
2022/05/26 04:41:07;;;;;;;5.15;0.50;;;;;;;14.09;98.08;97895.31;5149071;27;20042;-79
2022/05/26 04:43:41;;;;;;;1.60;0.65;;;;;;;14.43;93.29;97931.66;5116426;27;20125;-80
2022/05/26 04:46:16;;;;;;;3.35;0.90;;;;;;;14.26;93.48;97892.47;5159029;27;20115;-81
2022/05/26 04:49:02;;;;;;;4.70;0.73;;;;;;;14.69;89.85;97921.31;5155979;27;20039;-82
2022/05/26 04:54:52;;;;;;;3.92;0.80;;;;;;;14.93;89.95;97911.31;5159601;27;20126;-79
2022/05/26 04:57:27;;;;;;;1.92;0.65;;;;;;;15.10;85.26;97928.63;5158648;27;20125;-78
2022/05/26 05:00:24;;;;;;;4.32;0.73;;;;;;;15.11;84.95;97927.47;5157816;27;20094;-79
2022/05/26 05:07:14;;;;;;;1.30;0.60;;;;;;;15.18;83.78;97935.91;5041190;28;20049;-81
2022/05/26 05:14:26;;;;;;;1.45;0.60;;;;;;;15.13;85.26;97926.00;4994072;28;20054;-80
2022/05/26 05:18:17;;;;;;;2.13;0.70;;;;;;;15.26;86.78;97945.91;4989551;28;20162;-80
2022/05/26 05:21:49;;;;;;;3.97;0.80;;;;;;;15.24;86.18;97953.66;4921886;29;20051;-80
2022/05/26 05:29:01;;;;;;;1.77;0.80;;;;;;;15.15;89.96;97964.63;4998247;28;20053;-78
2022/05/26 05:32:24;;;;;;;1.42;0.55;;;;;;;14.94;94.22;97964.69;5072181;28;20526;-82
2022/05/26 05:35:11;;;;;;;2.13;0.82;;;;;;;14.71;95.25;97940.88;5061755;28;20040;-80
2022/05/26 05:37:48;;;;;;;2.40;0.85;;;;;;;14.85;93.80;97944.09;5072003;28;20076;-80
2022/05/26 05:40:15;;;;;;;3.78;0.90;;;;;;;15.11;94.34;97971.09;5071206;28;20048;-80
2022/05/26 05:42:42;;;;;;;2.78;0.98;;;;;;;15.23;88.97;97962.94;5055551;28;20623;-79
2022/05/26 05:45:09;;;;;;;2.65;0.82;;;;;;;15.28;88.75;97971.72;5073062;28;20048;-80
2022/05/26 05:47:36;;;;;;;3.28;0.77;;;;;;;15.38;87.40;97954.91;5074626;28;20052;-78
2022/05/26 05:50:04;;;;;;;1.40;0.60;;;;;;;15.51;87.39;97964.75;5094260;28;20040;-79
2022/05/26 05:52:30;;;;;;;2.97;0.85;;;;;;;15.46;84.58;97977.81;5080527;28;20044;-80
2022/05/26 05:54:57;;;;;;;7.40;0.90;;;;;;;15.58;85.54;97967.75;5071771;28;20080;-79
2022/05/26 05:57:24;;;;;;;2.75;0.80;;;;;;;15.63;82.30;97977.66;5073374;28;20040;-79
2022/05/26 05:59:51;;;;;;;2.28;0.80;;;;;;;15.69;85.72;97973.53;5072948;28;20090;-79
2022/05/26 06:02:18;;;;;;;3.58;0.80;;;;;;;15.81;82.82;97970.84;5129773;27;20038;-80
2022/05/26 06:05:02;;;;;;;3.42;1.00;;;;;;;15.85;82.10;97979.13;5157087;27;20066;-80
2022/05/26 06:07:29;;;;;;;6.20;0.90;;;;;;;15.94;81.22;97968.91;5156806;27;20039;-79
2022/05/26 06:09:55;;;;;;;4.15;0.80;;;;;;;16.00;82.10;97981.19;5157237;27;20050;-80
2022/05/26 06:12:22;;;;;;;3.08;0.85;;;;;;;15.96;80.92;97991.19;5155371;27;20042;-79
2022/05/26 06:14:52;;;;;;;8.50;0.93;;;;;;;16.11;78.22;97983.13;5137914;27;20069;-78
2022/05/26 06:17:25;;;;;;;3.97;1.10;;;;;;;16.41;80.06;97985.63;5138978;27;20046;-78
2022/05/26 06:19:52;;;;;;;3.15;0.90;;;;;;;16.48;74.49;97983.09;5155954;27;20066;-78
2022/05/26 06:22:22;;;;;;;6.22;0.70;;;;;;;16.26;74.39;97983.59;5139920;27;20449;-82
2022/05/26 06:24:49;;;;;;;2.20;0.80;;;;;;;16.23;77.89;97985.84;5158234;27;20492;-79
2022/05/26 06:30:10;;;;;;;2.05;0.65;;;;;;;16.23;79.41;97995.19;5159806;27;20066;-80
2022/05/26 06:38:13;;;;;;;2.42;0.80;;;;;;;16.42;78.92;98014.50;5157792;27;20540;-80
2022/05/26 06:40:40;;;;;;;2.40;0.63;;;;;;;16.33;82.39;98020.13;5158374;27;20075;-81
2022/05/26 06:43:06;;;;;;;4.45;0.75;;;;;;;16.39;82.89;98013.25;5159616;27;20049;-80
2022/05/26 06:45:35;;;;;;;3.70;0.60;;;;;;;16.37;77.76;98017.47;5158695;27;20492;-81
2022/05/26 06:48:04;;;;;;;2.58;0.70;;;;;;;16.48;79.87;98024.09;5159029;27;20066;-81
2022/05/26 06:50:31;;;;;;;3.92;0.82;;;;;;;16.36;78.40;98016.72;5157519;27;20107;-79
2022/05/26 06:52:57;;;;;;;3.35;0.70;;;;;;;16.45;79.28;98025.56;5158046;27;20096;-81
2022/05/26 06:55:24;;;;;;;2.42;0.80;;;;;;;16.44;79.47;98028.66;5139674;27;20042;-79
2022/05/26 06:57:51;;;;;;;3.47;0.70;;;;;;;16.51;77.64;98026.94;5158509;27;20081;-81
2022/05/26 07:00:18;;;;;;;4.60;0.73;;;;;;;16.78;81.02;98034.41;5139268;27;20074;-81
2022/05/26 07:02:46;;;;;;;3.45;0.63;;;;;;;16.80;79.94;98028.63;5138374;27;20043;-79
2022/05/26 07:05:13;;;;;;;1.67;0.60;;;;;;;16.64;78.62;98041.41;5157206;27;20102;-80
2022/05/26 07:07:41;;;;;;;1.50;0.52;;;;;;;16.53;81.62;98038.34;5163013;27;20030;-80
2022/05/26 07:10:10;;;;;;;7.22;0.70;;;;;;;16.62;80.08;98039.00;5162600;27;20039;-80
2022/05/26 07:12:36;;;;;;;1.27;0.55;;;;;;;16.63;82.84;98035.13;5160210;27;20047;-80
2022/05/26 07:15:03;;;;;;;1.65;0.60;;;;;;;16.86;82.46;98037.34;5150022;22;20456;-84
2022/05/26 07:17:30;;;;;;;2.53;0.70;;;;;;;17.10;80.21;98045.50;5050275;28;20052;-81
2022/05/26 07:19:57;;;;;;;2.03;0.80;;;;;;;16.91;84.46;98037.91;5053696;28;20045;-82
2022/05/26 07:22:24;;;;;;;2.78;0.90;;;;;;;16.95;82.30;98052.50;5072018;28;20048;-82
2022/05/26 07:24:51;;;;;;;3.40;0.60;;;;;;;17.01;81.62;98039.41;5071725;28;20067;-81
2022/05/26 07:27:19;;;;;;;5.50;0.80;;;;;;;17.48;82.70;98054.03;5070527;28;20074;-82
2022/05/26 07:29:51;;;;;;;1.63;0.60;;;;;;;17.28;82.73;98058.56;5069474;28;20131;-84
2022/05/26 07:32:19;;;;;;;4.03;0.80;;;;;;;17.44;79.72;98069.56;5071825;28;20048;-83
2022/05/26 07:34:46;;;;;;;3.17;0.80;;;;;;;17.25;77.20;98062.00;5072450;28;20072;-83
2022/05/26 07:43:08;;;;;;;1.17;0.65;;;;;;;16.94;78.53;98070.06;4998095;28;20368;-84
2022/05/26 07:45:36;;;;;;;3.88;0.60;;;;;;;16.73;78.56;98067.47;4999161;28;20193;-83
2022/05/26 07:48:04;;;;;;;3.22;0.50;;;;;;;16.90;77.73;98076.56;5029737;28;20060;-83
2022/05/26 07:50:30;;;;;;;1.60;0.63;;;;;;;17.02;78.56;98062.84;5067816;28;20052;-82
2022/05/26 07:53:01;;;;;;;1.98;0.50;;;;;;;17.25;76.46;98047.50;5049735;28;20123;-83
2022/05/26 07:55:28;;;;;;;2.70;0.60;;;;;;;17.45;75.63;98066.47;5047982;28;20052;-82
2022/05/26 07:57:58;;;;;;;1.73;0.60;;;;;;;17.55;74.48;98062.44;5064917;28;20091;-82
2022/05/26 08:00:25;;;;;;;4.10;0.60;;;;;;;17.81;71.92;98081.94;5050865;28;20126;-82
2022/05/26 08:02:51;;;;;;;3.05;0.77;;;;;;;17.28;75.40;98071.44;5065868;28;20252;-83
2022/05/26 08:05:18;;;;;;;3.60;0.50;;;;;;;17.42;76.78;98069.88;5069913;28;20084;-83
2022/05/26 08:07:45;;;;;;;1.27;0.50;;;;;;;17.88;75.09;98064.91;5070850;28;20094;-81
2022/05/26 08:10:16;;;;;;;2.65;0.60;;;;;;;18.01;72.83;98066.44;5066605;28;20056;-85
2022/05/26 08:12:42;;;;;;;3.22;0.60;;;;;;;18.14;72.41;98061.66;5066549;28;20437;-86
2022/05/26 08:15:12;;;;;;;3.65;0.50;;;;;;;17.82;72.09;98088.22;5067171;28;20606;-83
2022/05/26 08:17:39;;;;;;;2.20;0.60;;;;;;;18.01;75.03;98064.47;5082301;28;20052;-82
2022/05/26 08:20:07;;;;;;;6.15;0.70;;;;;;;18.46;73.50;98079.66;5060447;28;20470;-83
2022/05/26 08:22:40;;;;;;;3.83;0.45;;;;;;;18.32;68.66;98077.41;5069294;28;20068;-82
2022/05/26 08:25:17;;;;;;;2.95;0.50;;;;;;;18.31;72.67;98069.50;5032223;28;20110;-79
2022/05/26 08:27:45;;;;;;;1.77;0.80;;;;;;;18.15;70.87;98057.75;5048833;28;20067;-81
2022/05/26 08:30:12;;;;;;;1.63;0.63;;;;;;;18.27;71.08;98094.09;5088760;28;20080;-83
2022/05/26 08:32:38;;;;;;;3.33;0.70;;;;;;;18.38;72.30;98078.69;5063976;28;20114;-81
2022/05/26 08:35:08;;;;;;;1.80;0.40;;;;;;;18.54;68.58;98079.53;5049287;28;20098;-82
2022/05/26 08:37:34;;;;;;;3.85;0.60;;;;;;;18.70;71.30;98062.25;5067478;28;20055;-83
2022/05/26 08:40:02;;;;;;;2.10;0.65;;;;;;;18.45;70.14;98080.84;5043231;28;20514;-79
2022/05/26 08:42:31;;;;;;;3.10;0.77;;;;;;;18.36;71.95;98070.03;5074674;28;20048;-79
2022/05/26 08:45:11;;;;;;;2.78;0.60;;;;;;;18.53;70.45;98080.66;5061280;28;20052;-81
2022/05/26 08:47:45;;;;;;;2.15;0.43;;;;;;;18.53;71.65;98072.44;5066337;28;20107;-83
2022/05/26 08:50:16;;;;;;;3.95;0.55;;;;;;;18.26;72.06;98078.00;5053380;28;20514;-80
2022/05/26 08:52:46;;;;;;;4.22;0.73;;;;;;;18.49;71.68;98087.22;5040158;28;20045;-83
2022/05/26 08:55:27;;;;;;;1.90;0.60;;;;;;;18.85;70.47;98067.69;5072423;28;20049;-82
2022/05/26 08:58:04;;;;;;;1.10;0.40;;;;;;;19.19;68.15;98061.38;5069130;28;20040;-81
2022/05/26 09:00:31;;;;;;;1.48;0.47;;;;;;;18.85;68.15;98061.41;5065273;28;20063;-82
2022/05/26 09:03:00;;;;;;;4.10;0.90;;;;;;;19.31;66.60;98079.66;5051510;28;20079;-82
2022/05/26 09:05:37;;;;;;;2.05;0.70;;;;;;;18.96;67.22;98078.91;5057436;28;20110;-83
2022/05/26 09:13:58;;;;;;;2.92;0.70;;;;;;;19.04;63.89;98078.72;5081756;28;20057;-80
2022/05/26 09:16:27;;;;;;;2.15;0.57;;;;;;;19.23;64.45;98089.69;5082222;28;20136;-78
2022/05/26 09:19:15;;;;;;;3.03;0.60;;;;;;;19.40;65.05;98098.69;5066681;28;20055;-80
2022/05/26 09:21:43;;;;;;;0.95;0.40;;;;;;;19.57;61.48;98079.84;5053969;28;20067;-79
2022/05/26 09:24:27;;;;;;;1.77;0.70;;;;;;;19.38;61.39;98093.59;5071579;28;20044;-82
2022/05/26 09:26:55;;;;;;;3.38;0.50;;;;;;;19.68;61.36;98094.56;5055388;28;20584;-85
2022/05/26 09:29:25;;;;;;;3.30;0.40;;;;;;;19.70;62.02;98097.75;5055119;28;20571;-83
2022/05/26 09:31:59;;;;;;;2.60;0.47;;;;;;;19.97;60.14;98092.38;5063293;28;20037;-81
2022/05/26 09:35:18;;;;;;;2.63;0.60;;;;;;;19.70;59.90;98091.44;5071539;28;20044;-82
2022/05/26 09:37:51;;;;;;;1.80;0.45;;;;;;;20.33;58.22;98089.91;5054243;28;20049;-81
2022/05/26 09:40:31;;;;;;;0.80;0.40;;;;;;;20.98;58.82;98093.25;5073774;28;20049;-79
2022/05/26 09:43:08;;;;;;;0.90;0.40;;;;;;;20.02;58.42;98070.06;5071875;28;20040;-79
2022/05/26 09:45:47;;;;;;;1.98;0.57;;;;;;;20.60;59.04;98092.66;5086842;28;20043;-81
2022/05/26 09:48:18;;;;;;;3.50;0.63;;;;;;;21.35;56.43;98090.66;5044695;28;20103;-82
2022/05/26 09:51:11;;;;;;;6.32;0.50;;;;;;;21.30;54.84;98079.16;5051200;28;20052;-84
2022/05/26 09:53:42;;;;;;;3.15;0.60;;;;;;;20.47;55.70;98092.06;5052955;28;20052;-83
2022/05/26 09:56:13;;;;;;;3.20;0.55;;;;;;;21.46;54.12;98102.59;5071253;28;20075;-81
2022/05/26 09:58:45;;;;;;;4.68;0.70;;;;;;;21.81;52.11;98082.16;5068423;28;20051;-81
2022/05/26 10:01:23;;;;;;;1.95;0.50;;;;;;;22.24;51.48;98109.00;5067799;28;20068;-77
2022/05/26 10:04:17;;;;;;;1.85;0.50;;;;;;;22.05;51.27;98096.22;5062361;28;20048;-70
2022/05/26 10:07:09;;;;;;;7.10;0.82;;;;;;;22.77;51.51;98107.50;5043474;28;20167;-82
2022/05/26 10:09:46;;;;;;;1.38;0.60;;;;;;;22.15;50.58;98095.53;5067180;28;20040;-81
2022/05/26 10:12:20;;;;;;;9.05;0.68;;;;;;;23.37;49.64;98096.88;5066974;28;20052;-82
2022/05/26 10:15:10;;;;;;;3.13;0.50;;;;;;;21.98;50.32;98096.16;5062843;28;20575;-83
2022/05/26 10:17:48;;;;;;;2.28;0.43;;;;;;;21.05;52.68;98109.91;5061457;28;20061;-83
2022/05/26 10:20:29;;;;;;;5.50;0.50;;;;;;;21.18;52.38;98113.25;5053058;28;20470;-83
2022/05/26 10:23:33;;;;;;;2.83;0.50;;;;;;;21.86;49.43;98110.16;5066531;28;20131;-80
2022/05/26 10:26:21;;;;;;;1.25;0.40;;;;;;;21.74;50.97;98118.69;5070356;28;20426;-82
2022/05/26 10:29:10;;;;;;;1.48;0.50;;;;;;;21.19;52.07;98114.81;5068653;28;20714;-81
2022/05/26 10:31:59;;;;;;;1.08;0.43;;;;;;;20.40;53.33;98106.53;5069418;28;20724;-79
2022/05/26 10:35:03;;;;;;;2.10;0.40;;;;;;;22.14;51.74;98110.47;5065745;28;20028;-81
2022/05/26 10:38:04;;;;;;;1.55;0.40;;;;;;;23.30;47.21;98107.06;5016524;28;20582;-84
2022/05/26 10:40:52;;;;;;;2.08;0.50;;;;;;;20.89;52.89;98120.28;5071598;28;20407;-83
2022/05/26 10:43:25;;;;;;;5.82;0.50;;;;;;;19.62;56.93;98109.75;5071114;28;20194;-86
2022/05/26 10:45:53;;;;;;;2.90;0.50;;;;;;;19.18;57.42;98124.88;5052149;28;20144;-83
2022/05/26 10:48:45;;;;;;;4.93;0.50;;;;;;;18.85;60.76;98122.56;5071774;28;20106;-82
2022/05/26 10:51:18;;;;;;;1.17;0.50;;;;;;;18.88;62.05;98126.53;5063098;28;20079;-82
2022/05/26 10:53:47;;;;;;;2.92;0.57;;;;;;;19.31;60.93;98126.34;5067730;28;20156;-81
2022/05/26 10:56:28;;;;;;;2.42;0.60;;;;;;;19.53;61.05;98133.09;5053252;28;20056;-83
2022/05/26 10:59:10;;;;;;;1.77;0.40;;;;;;;20.89;57.15;98117.53;5077140;28;20120;-82
2022/05/26 11:01:45;;;;;;;2.15;0.50;;;;;;;22.85;53.60;98113.88;5072930;28;20052;-81
2022/05/26 11:04:40;;;;;;;1.42;0.50;;;;;;;21.87;50.56;98114.53;5073205;28;20050;-84
2022/05/26 11:07:17;;;;;;;3.05;0.40;;;;;;;20.91;52.78;98120.69;5073771;28;20557;-84
2022/05/26 11:09:51;;;;;;;1.30;0.50;;;;;;;20.57;54.15;98109.94;5072772;28;20049;-83
2022/05/26 11:12:37;;;;;;;2.13;0.50;;;;;;;19.86;56.05;98125.13;5055233;28;20577;-85
2022/05/26 11:18:21;;;;;;;1.80;0.70;;;;;;;20.45;55.82;98108.16;5083276;28;20418;-82
2022/05/26 11:20:53;;;;;;;4.93;0.65;;;;;;;20.51;56.52;98120.44;5078958;28;20060;-80
2022/05/26 11:23:21;;;;;;;1.92;0.52;;;;;;;19.88;57.85;98120.88;5075369;28;20068;-82
2022/05/26 11:26:02;;;;;;;2.08;0.60;;;;;;;20.15;59.06;98123.72;5057221;28;20078;-82
2022/05/26 11:28:39;;;;;;;1.98;0.55;;;;;;;19.61;58.01;98121.91;5074506;28;20048;-84
2022/05/26 11:37:03;;;;;;;1.15;0.40;;;;;;;19.42;57.60;98105.44;5053569;28;20404;-82
2022/05/26 11:39:39;;;;;;;1.08;0.40;;;;;;;20.04;56.59;98123.53;5068141;28;21022;-84
2022/05/26 11:42:25;;;;;;;1.35;0.50;;;;;;;20.23;55.03;98119.94;5068447;28;20112;-79
2022/05/26 11:44:56;;;;;;;2.20;0.50;;;;;;;20.52;53.96;98116.53;5068028;28;20092;-81
2022/05/26 11:47:49;;;;;;;1.10;0.40;;;;;;;21.10;52.59;98117.88;5054978;28;20588;-81
2022/05/26 11:50:56;;;;;;;3.45;0.50;;;;;;;23.35;47.89;98110.25;5063454;28;20059;-87
2022/05/26 11:53:38;;;;;;;3.47;0.73;;;;;;;25.16;43.89;98105.84;4968004;28;20095;-85
2022/05/26 11:56:23;;;;;;;0.93;0.40;;;;;;;24.74;43.93;98099.16;5059099;28;20048;-82
2022/05/26 11:59:18;;;;;;;1.40;0.50;;;;;;;22.35;48.39;98112.63;5089203;28;20084;-83
2022/05/26 12:01:46;;;;;;;2.40;1.42;;;;;;;21.19;51.71;98112.06;5081672;28;20044;-84
2022/05/26 12:04:33;;;;;;;2.22;0.65;;;;;;;20.58;54.66;98117.81;5098073;28;20167;-81
2022/05/26 12:07:05;;;;;;;6.40;1.70;;;;;;;19.82;54.96;98113.28;5090175;28;20151;-80
2022/05/26 12:09:53;;;;;;;11.00;3.33;;;;;;;19.71;56.04;98102.09;5091257;28;20072;-84
2022/05/26 12:12:23;;;;;;;5.38;2.40;;;;;;;19.85;57.53;98112.53;5091986;28;20387;-84
2022/05/26 12:14:55;;;;;;;1.98;0.80;;;;;;;20.37;55.15;98109.19;5094896;28;20124;-83
2022/05/26 12:17:41;;;;;;;1.05;0.45;;;;;;;23.84;47.29;98100.59;5097020;28;20147;-85
2022/05/26 12:20:10;;;;;;;1.83;0.32;;;;;;;25.91;43.99;98096.84;5096533;28;20232;-85
2022/05/26 12:22:41;;;;;;;1.77;0.52;;;;;;;24.06;44.79;98111.31;5087544;28;20104;-81
2022/05/26 12:25:29;;;;;;;3.10;0.50;;;;;;;22.90;46.54;98103.25;5085518;28;20114;-82
2022/05/26 12:28:13;;;;;;;2.60;0.50;;;;;;;21.07;50.80;98118.59;5063715;28;20695;-83
2022/05/26 12:30:44;;;;;;;2.25;0.50;;;;;;;21.19;50.66;98112.06;5070059;28;20062;-82
2022/05/26 12:33:20;;;;;;;2.38;0.57;;;;;;;22.54;48.73;98100.59;5069116;28;20150;-80
2022/05/26 12:35:50;;;;;;;;;;;;;;;23.84;44.85;98098.63;5069916;28;20044;-81
2022/05/26 12:38:32;;;;;;;1.60;0.50;;;;;;;24.30;44.45;98106.25;5088282;28;20390;-83
2022/05/26 12:41:37;;;;;;;9.48;3.95;;;;;;;25.21;41.18;98089.63;5069709;28;20052;-80
2022/05/26 12:44:51;;;;;;;1.30;0.60;;;;;;;26.28;42.04;98092.69;5053936;28;20065;-81
2022/05/26 12:47:36;;;;;;;4.57;0.50;;;;;;;24.11;44.25;98091.59;5089941;28;20052;-82
2022/05/26 12:50:15;;;;;;;1.40;1.20;;;;;;;22.33;46.96;98095.69;5075153;28;20109;-85
2022/05/26 12:52:43;;;;;;;1.00;0.60;;;;;;;21.29;49.16;98080.34;5091671;28;20461;-85
2022/05/26 12:55:12;;;;;;;2.65;0.60;;;;;;;20.79;50.15;98084.34;5070618;28;20060;-84
2022/05/26 12:57:46;;;;;;;0.77;0.32;;;;;;;20.18;52.94;98090.78;5103311;28;20048;-82
2022/05/26 13:00:27;;;;;;;0.60;0.30;;;;;;;20.12;55.00;98094.19;5100306;28;20487;-83
2022/05/26 13:02:57;;;;;;;1.23;0.45;;;;;;;19.73;55.32;98091.53;5092258;28;20616;-84
2022/05/26 13:05:30;;;;;;;3.83;0.50;;;;;;;19.38;55.39;98087.28;5091228;28;20063;-86
2022/05/26 13:07:59;;;;;;;2.35;0.40;;;;;;;19.04;55.55;98078.72;5083241;28;20051;-85
2022/05/26 13:10:30;;;;;;;2.70;0.63;;;;;;;18.90;57.49;98100.34;5086149;28;20083;-86
2022/05/26 13:12:57;;;;;;;0.75;0.30;;;;;;;18.73;59.10;98102.69;5086081;28;20094;-84
2022/05/26 13:15:27;;;;;;;1.85;0.28;;;;;;;18.72;59.67;98096.38;5103443;28;20258;-81
2022/05/26 13:17:54;;;;;;;0.80;0.40;;;;;;;18.70;62.21;98089.66;5092011;28;20048;-80
2022/05/26 13:20:38;;;;;;;1.35;0.50;;;;;;;18.55;62.49;98100.31;5088609;28;20130;-81
2022/05/26 13:23:30;;;;;;;1.55;0.40;;;;;;;18.39;62.36;98085.78;5103901;28;20047;-79
2022/05/26 13:25:59;;;;;;;4.32;0.55;;;;;;;18.30;62.67;98089.88;5095320;28;20064;-79
2022/05/26 13:28:30;;;;;;;1.77;0.38;;;;;;;18.31;63.59;98111.44;5092795;28;20052;-81
2022/05/26 13:34:05;;;;;;;1.25;0.52;;;;;;;18.47;63.09;98108.72;5093125;28;20095;-78
2022/05/26 13:36:41;;;;;;;1.15;0.50;;;;;;;18.71;61.34;98102.25;5084906;28;20052;-83
2022/05/26 13:39:11;;;;;;;0.63;0.40;;;;;;;18.84;61.21;98100.97;5064239;28;20129;-80
2022/05/26 13:41:45;;;;;;;2.55;0.40;;;;;;;18.73;61.97;98114.44;5092570;28;20102;-84
2022/05/26 13:44:15;;;;;;;1.15;0.40;;;;;;;18.59;62.98;98101.19;5062487;28;20052;-84
2022/05/26 13:46:47;;;;;;;1.02;0.40;;;;;;;18.52;62.96;98092.00;5088638;28;20081;-81
2022/05/26 13:49:19;;;;;;;1.70;0.60;;;;;;;18.62;65.08;98105.16;5082415;28;20060;-80
2022/05/26 13:51:48;;;;;;;4.90;0.70;;;;;;;18.98;63.02;98098.53;5097073;28;20052;-82
2022/05/26 13:54:25;;;;;;;4.35;0.70;;;;;;;20.96;56.33;98101.09;5120330;28;20044;-81
2022/05/26 13:56:55;;;;;;;2.75;0.63;;;;;;;23.47;48.81;98089.78;5091719;28;20048;-78
2022/05/26 13:59:23;;;;;;;1.42;0.50;;;;;;;21.82;52.31;98098.28;5090778;28;20510;-79
2022/05/26 14:01:56;;;;;;;2.05;0.50;;;;;;;20.29;55.51;98091.78;5096206;28;20062;-77
2022/05/26 14:04:30;;;;;;;4.13;0.70;;;;;;;22.04;52.23;98088.34;5102072;28;20616;-77
2022/05/26 14:06:57;;;;;;;1.15;0.60;;;;;;;24.69;46.64;98085.72;5093959;28;20110;-80
2022/05/26 14:09:34;;;;;;;2.65;0.60;;;;;;;25.68;44.08;98079.16;5098453;28;20063;-77
2022/05/26 14:12:21;;;;;;;1.70;0.47;;;;;;;22.26;49.83;98090.09;5093772;28;20671;-76
2022/05/26 14:14:48;;;;;;;4.90;0.60;;;;;;;20.78;55.07;98080.78;5071505;28;20084;-76
2022/05/26 14:17:24;;;;;;;2.67;0.60;;;;;;;20.41;56.69;98077.06;5090360;28;20051;-76
2022/05/26 14:19:54;;;;;;;4.75;0.60;;;;;;;20.25;59.24;98079.16;5090951;28;20052;-76